Time;durP1;ratioP1;P1;durP2;ratioP2;P2;SDS_P1;SDS_P2;PMS_P1;PMS_P2;Temp;Humidity;BMP_temperature;BMP_pressure;BME280_temperature;BME280_humidity;BME280_pressure;Samples;Min_cycle;Max_cycle;Signal;HPM_P1;HPM_P2
2023/02/21 02:14:39;;;;;;;;;;;;;;;;;;;;;
2023/02/21 02:18:18;;;;;;;28.57;12.27;;;;;;;-8.91;57.22;97684.28;5944235;23;20011;-86
2023/02/21 02:22:04;;;;;;;;;;;;;;;;;;;;;
2023/02/21 02:25:32;;;;;;;;;;;;;;;;;;;;;
2023/02/21 02:29:09;;;;;;;31.83;13.30;;;;;;;-8.61;57.60;97668.50;6017536;23;20015;-88
2023/02/21 02:32:43;;;;;;;34.40;13.37;;;;;;;-9.10;58.13;97597.97;6021424;23;20029;-82
2023/02/21 02:35:51;;;;;;;35.70;14.60;;;;;;;-8.80;56.93;97672.91;6052280;23;20019;-84
2023/02/21 02:38:56;;;;;;;37.73;15.53;;;;;;;-9.26;56.87;97621.78;6093771;23;20018;-87
2023/02/21 02:42:27;;;;;;;37.87;15.27;;;;;;;-9.21;57.69;97596.72;6031984;23;20020;-84
2023/02/21 02:45:20;;;;;;;35.33;15.77;;;;;;;-8.63;57.59;97665.91;6114490;23;20050;-85
2023/02/21 02:48:31;;;;;;;37.93;16.03;;;;;;;-8.82;57.56;97644.25;6114618;23;20014;-85
2023/02/21 02:51:34;;;;;;;34.47;14.23;;;;;;;-8.92;57.28;97602.75;6109537;23;20030;-84
2023/02/21 02:56:05;;;;;;;33.15;14.32;;;;;;;-9.58;56.94;97518.25;6095559;23;20071;-86
2023/02/21 02:59:36;;;;;;;34.87;15.30;;;;;;;-8.92;57.56;97660.72;5961172;23;20025;-87
2023/02/21 03:08:08;;;;;;;33.10;14.03;;;;;;;-9.66;57.11;97558.28;5937154;24;20071;-84
2023/02/21 03:11:24;;;;;;;34.57;13.83;;;;;;;-9.20;56.79;97642.16;5978599;24;20036;-85
2023/02/21 03:14:41;;;;;;;37.50;13.60;;;;;;;-9.67;57.40;97571.66;5988513;24;20028;-85
2023/02/21 03:18:35;;;;;;;51.27;20.10;;;;;;;-9.52;56.57;97619.22;6107308;23;20107;-85
2023/02/21 03:22:32;;;;;;;;;;;;;;;;;;;;;
2023/02/21 03:25:01;;;;;;;57.57;22.97;;;;;;;-9.33;56.80;97622.38;5987466;24;20038;-86
2023/02/21 03:28:01;;;;;;;43.07;18.50;;;;;;;-9.10;57.22;97681.97;5970827;24;20027;-84
2023/02/21 03:31:25;;;;;;;37.17;14.47;;;;;;;-9.41;56.67;97617.06;5970547;24;20036;-85
2023/02/21 03:33:57;;;;;;;32.97;14.13;;;;;;;-9.71;56.21;97578.25;5978236;24;20032;-83
2023/02/21 03:37:07;;;;;;;34.50;13.60;;;;;;;-9.29;56.76;97667.03;5996375;24;20020;-84
2023/02/21 03:40:15;;;;;;;32.10;13.10;;;;;;;-9.45;55.88;97658.94;5993990;24;20023;-83
2023/02/21 03:43:11;;;;;;;34.87;14.00;;;;;;;-9.52;56.62;97651.09;6115307;23;20029;-85
2023/02/21 03:45:55;;;;;;;34.67;13.40;;;;;;;-9.86;55.81;97598.72;6106332;23;20139;-81
2023/02/21 03:48:24;;;;;;;34.27;14.07;;;;;;;-9.94;56.85;97576.59;6105734;23;20018;-81
2023/02/21 03:50:51;;;;;;;35.57;13.83;;;;;;;-9.42;57.40;97661.56;6081829;23;20025;-81
2023/02/21 03:53:24;;;;;;;35.30;13.20;;;;;;;-10.06;56.58;97561.88;6060166;23;20052;-83
2023/02/21 03:56:03;;;;;;;34.60;13.10;;;;;;;-9.88;56.34;97565.06;6104983;23;20018;-83
2023/02/21 03:58:42;;;;;;;40.77;14.47;;;;;;;-9.48;56.79;97635.28;6082237;23;20069;-85
2023/02/21 04:01:11;;;;;;;40.67;15.77;;;;;;;-9.46;56.73;97642.09;6081029;23;20069;-81
2023/02/21 04:03:43;;;;;;;37.67;15.20;;;;;;;-9.42;55.90;97656.53;6104533;23;20411;-82
2023/02/21 04:06:10;;;;;;;36.13;13.90;;;;;;;-9.82;56.43;97577.03;6080837;23;20144;-79
2023/02/21 04:08:39;;;;;;;42.00;14.03;;;;;;;-9.47;55.98;97662.19;6059164;23;20014;-81
2023/02/21 04:11:20;;;;;;;46.43;15.53;;;;;;;-10.37;56.47;97544.00;6108109;23;20030;-82
2023/02/21 04:13:58;;;;;;;36.87;14.47;;;;;;;-10.18;56.58;97559.78;6104879;23;20081;-83
2023/02/21 04:16:29;;;;;;;41.60;14.87;;;;;;;-9.81;56.50;97601.38;6082339;23;20026;-84
2023/02/21 04:18:59;;;;;;;33.67;13.57;;;;;;;-9.66;56.24;97615.34;6083421;23;20102;-82
2023/02/21 04:21:26;;;;;;;44.37;15.90;;;;;;;-9.41;56.38;97660.75;6083195;23;20395;-83
2023/02/21 04:24:08;;;;;;;40.77;16.07;;;;;;;-9.86;56.33;97588.63;6087814;23;20032;-82
2023/02/21 04:26:52;;;;;;;38.50;14.13;;;;;;;-9.85;55.93;97592.03;6087562;23;20044;-82
2023/02/21 04:29:24;;;;;;;35.43;13.10;;;;;;;-9.47;55.81;97657.13;6081732;23;20045;-84
2023/02/21 04:31:57;;;;;;;39.13;14.53;;;;;;;-10.15;56.14;97548.16;6105323;23;20025;-84
2023/02/21 04:34:33;;;;;;;39.20;13.90;;;;;;;-9.60;56.46;97639.09;6107294;23;20051;-84
2023/02/21 04:37:00;;;;;;;32.90;12.53;;;;;;;-9.39;56.39;97668.38;6081301;23;20041;-81
2023/02/21 04:39:35;;;;;;;42.13;14.37;;;;;;;-9.78;56.37;97626.69;6081817;23;20110;-81
2023/02/21 04:42:02;;;;;;;35.00;13.30;;;;;;;-9.82;55.69;97616.44;6106755;23;20022;-82
2023/02/21 04:44:32;;;;;;;30.43;13.03;;;;;;;-10.29;56.09;97562.78;6110742;23;20014;-82
2023/02/21 04:46:58;;;;;;;37.13;14.27;;;;;;;-10.32;55.30;97555.09;6085167;23;20033;-83
2023/02/21 04:49:28;;;;;;;30.63;12.70;;;;;;;-9.99;55.92;97624.25;6107416;23;20072;-78
2023/02/21 04:52:00;;;;;;;33.07;13.67;;;;;;;-9.98;55.73;97639.38;6112661;23;20045;-81
2023/02/21 04:54:26;;;;;;;35.10;14.37;;;;;;;-10.17;56.63;97612.69;6064372;23;20021;-80
2023/02/21 04:56:53;;;;;;;35.57;13.37;;;;;;;-9.93;55.29;97676.47;6064268;23;20029;-78
2023/02/21 04:59:22;;;;;;;35.87;13.70;;;;;;;-10.34;55.63;97654.78;6113310;23;20022;-81
2023/02/21 05:02:05;;;;;;;35.20;14.53;;;;;;;-10.42;55.84;97658.69;6107740;23;20050;-84
2023/02/21 05:04:31;;;;;;;33.43;13.67;;;;;;;-10.98;55.91;97558.47;6084641;23;20022;-81
2023/02/21 05:07:08;;;;;;;33.83;13.53;;;;;;;-10.51;55.69;97608.03;6088173;23;20034;-80
2023/02/21 05:09:47;;;;;;;38.33;13.20;;;;;;;-10.42;56.00;97613.41;6108344;23;20049;-81
2023/02/21 05:12:20;;;;;;;46.40;19.13;;;;;;;-10.47;55.82;97599.81;6082835;23;20021;-84
2023/02/21 05:14:50;;;;;;;31.67;12.43;;;;;;;-10.18;55.55;97636.13;6107282;23;20045;-81
2023/02/21 05:17:30;;;;;;;38.03;13.80;;;;;;;-10.05;55.42;97670.16;6084530;23;20069;-83
2023/02/21 05:20:11;;;;;;;35.17;12.43;;;;;;;-10.58;55.48;97578.44;6083822;23;20081;-82
2023/02/21 05:22:39;;;;;;;36.22;13.68;;;;;;;-10.43;56.02;97590.75;6082545;23;20102;-82
2023/02/21 05:25:23;;;;;;;32.03;13.07;;;;;;;-10.37;55.45;97590.94;6084706;23;20014;-84
2023/02/21 05:27:53;;;;;;;35.27;13.80;;;;;;;-10.67;55.06;97568.88;6107723;23;20018;-81
2023/02/21 05:30:43;;;;;;;42.60;14.07;;;;;;;-10.32;55.11;97597.88;6083636;23;20030;-80
2023/02/21 05:33:12;;;;;;;37.00;13.32;;;;;;;-9.61;55.42;97699.47;6107105;23;20456;-81
2023/02/21 05:35:51;;;;;;;38.93;15.00;;;;;;;-10.31;54.85;97559.34;6114678;23;20018;-83
2023/02/21 05:38:23;;;;;;;31.30;12.33;;;;;;;-9.52;55.25;97684.69;6112355;23;20025;-83
2023/02/21 05:41:02;;;;;;;36.53;14.07;;;;;;;-9.75;55.35;97629.31;6113243;23;20003;-86
2023/02/21 05:43:46;;;;;;;31.67;12.70;;;;;;;-9.89;55.26;97593.56;6121739;23;20003;-84
2023/02/21 05:50:31;;;;;;;31.67;13.07;;;;;;;-9.93;54.83;97573.25;5944518;24;20017;-83
2023/02/21 05:53:30;;;;;;;34.72;13.65;;;;;;;-9.57;54.19;97603.94;5942772;24;20116;-86
2023/02/21 05:56:28;;;;;;;37.80;14.67;;;;;;;-9.31;54.30;97634.22;5900978;24;20072;-83
2023/02/21 05:59:38;;;;;;;32.10;13.20;;;;;;;-9.55;55.01;97592.25;5914779;23;20035;-87
2023/02/21 06:08:49;;;;;;;36.50;14.70;;;;;;;-8.98;54.68;97632.81;6208223;23;20020;-83
2023/02/21 06:11:32;;;;;;;35.10;14.97;;;;;;;-8.82;54.37;97631.63;6186353;23;20064;-85
2023/02/21 06:14:41;;;;;;;38.40;15.30;;;;;;;-8.75;53.85;97620.13;6158339;23;20017;-83
2023/02/21 06:17:20;;;;;;;34.92;14.80;;;;;;;-8.81;53.97;97575.34;6159899;23;20028;-86
2023/02/21 06:19:56;;;;;;;35.65;14.95;;;;;;;-8.73;53.65;97571.44;6204292;23;20013;-86
2023/02/21 06:22:24;;;;;;;41.03;15.18;;;;;;;-8.45;53.74;97589.06;6174488;23;20041;-86
2023/02/21 06:25:00;;;;;;;36.05;13.80;;;;;;;-8.54;53.49;97562.78;6150860;23;20021;-83
2023/02/21 06:27:36;;;;;;;37.00;14.98;;;;;;;-8.33;53.44;97569.25;6173324;23;20032;-83
2023/02/21 06:30:08;;;;;;;;;;;;;;;-7.37;52.85;97687.34;6155108;23;20076;-82
2023/02/21 06:36:31;;;;;;;37.40;14.13;;;;;;;-6.39;52.63;97686.56;6146018;23;20069;-84
2023/02/21 06:39:36;;;;;;;35.00;14.38;;;;;;;-5.51;51.96;97676.66;6157797;23;20025;-84
2023/02/21 06:42:46;;;;;;;;;;;;;;;;;;;;;
2023/02/21 06:46:07;;;;;;;40.03;14.98;;;;;;;-4.90;51.59;97689.72;6194895;23;20460;-83
2023/02/21 06:48:47;;;;;;;36.40;15.50;;;;;;;-3.97;51.62;97626.91;6196163;23;20021;-85
2023/02/21 06:51:17;;;;;;;43.80;16.50;;;;;;;-2.60;50.59;97599.59;6201395;23;20044;-84
2023/02/21 06:54:44;;;;;;;40.00;16.17;;;;;;;-0.35;50.16;97667.00;6110002;23;20041;-87
2023/02/21 06:57:18;;;;;;;48.15;19.48;;;;;;;0.75;49.46;97600.25;6060558;23;20073;-84
2023/02/21 07:00:01;;;;;;;54.47;21.52;;;;;;;2.73;48.26;97653.38;6085085;23;20065;-84
2023/02/21 07:02:46;;;;;;;61.95;25.00;;;;;;;3.92;46.04;97653.44;6079031;23;20345;-85
2023/02/21 07:05:37;;;;;;;47.53;20.75;;;;;;;3.86;44.33;97564.31;6053196;23;20019;-84
2023/02/21 07:08:04;;;;;;;45.63;19.63;;;;;;;5.03;43.99;97582.69;6060096;23;20074;-84
2023/02/21 07:11:04;;;;;;;42.33;20.15;;;;;;;6.58;40.93;97646.91;6068715;23;20031;-83
2023/02/21 07:13:58;;;;;;;45.75;22.33;;;;;;;6.88;41.11;97651.25;6077359;23;20054;-84
2023/02/21 07:16:57;;;;;;;43.55;22.05;;;;;;;8.03;40.93;97635.72;6070531;23;20118;-84
2023/02/21 07:19:29;;;;;;;49.55;23.17;;;;;;;8.64;39.41;97572.31;6080084;23;20061;-86
2023/02/21 07:22:36;;;;;;;;;;;;;;;;;;;;;
2023/02/21 07:25:25;;;;;;;38.53;20.85;;;;;;;9.94;37.41;97575.06;6090289;23;20048;-87
2023/02/21 07:28:17;;;;;;;38.67;20.40;;;;;;;10.58;35.81;97574.13;6148410;23;20362;-86
2023/02/21 07:31:48;;;;;;;35.08;19.15;;;;;;;10.85;35.25;97551.22;6146444;23;20037;-86
2023/02/21 07:38:45;;;;;;;33.70;19.58;;;;;;;12.49;32.57;97594.56;6063757;23;20018;-86
2023/02/21 07:42:12;;;;;;;;;;;;;;;;;;;;;
2023/02/21 07:54:29;;;;;;;;;;;;;;;;;;;;;
2023/02/21 07:58:39;;;;;;;37.20;19.67;;;;;;;15.61;28.23;97614.19;6027697;23;20024;-83
2023/02/21 08:01:57;;;;;;;31.80;18.65;;;;;;;16.01;27.63;97646.66;5899315;24;20041;-86
2023/02/21 08:04:58;;;;;;;31.25;19.98;;;;;;;16.23;26.72;97649.53;5906777;24;20052;-83
2023/02/21 08:07:35;;;;;;;30.88;19.67;;;;;;;16.09;25.90;97597.16;5884637;24;20054;-88
2023/02/21 08:11:14;;;;;;;29.88;19.15;;;;;;;16.76;25.39;97645.22;5896552;23;20024;-86
2023/02/21 08:14:09;;;;;;;30.15;19.83;;;;;;;17.67;24.82;97638.00;6058021;23;20022;-83
2023/02/21 08:17:14;;;;;;;28.33;18.75;;;;;;;18.33;24.26;97637.59;6168482;23;20017;-87
2023/02/21 08:21:00;;;;;;;30.35;19.98;;;;;;;18.19;22.88;97630.75;6117110;23;20463;-84
2023/02/21 08:23:31;;;;;;;29.60;19.83;;;;;;;17.84;22.67;97576.28;6077939;23;20101;-83
2023/02/21 08:25:58;;;;;;;28.35;18.85;;;;;;;18.35;22.12;97609.34;6164813;23;20351;-83
2023/02/21 08:28:45;;;;;;;29.75;19.92;;;;;;;18.52;21.13;97587.03;6119653;23;20028;-84
2023/02/21 08:39:09;;;;;;;23.05;17.65;;;;;;;19.23;20.87;97557.81;6178403;23;20025;-81
2023/02/21 08:41:53;;;;;;;23.73;17.67;;;;;;;19.62;19.81;97580.22;6171573;23;20016;-84
2023/02/21 08:44:56;;;;;;;25.52;17.35;;;;;;;19.91;19.66;97630.63;6101666;23;20138;-86
2023/02/21 08:48:16;;;;;;;23.70;17.13;;;;;;;19.74;18.38;97626.72;6152180;23;20028;-83
2023/02/21 08:51:07;;;;;;;22.70;16.35;;;;;;;20.26;19.25;97634.81;6170488;23;20031;-84
2023/02/21 08:54:04;;;;;;;23.20;16.65;;;;;;;20.62;19.25;97608.91;6147192;23;20112;-83
2023/02/21 08:56:54;;;;;;;21.35;15.60;;;;;;;20.13;18.76;97555.81;6174623;23;20446;-83
2023/02/21 09:00:23;;;;;;;22.45;15.95;;;;;;;20.67;18.83;97613.78;6123917;23;20101;-87
2023/02/21 09:08:36;;;;;;;21.20;14.43;;;;;;;21.61;18.02;97628.66;6079885;23;20034;-86
2023/02/21 09:25:11;;;;;;;19.65;14.32;;;;;;;22.01;17.98;97621.59;5861382;24;20033;-85
2023/02/21 09:27:59;;;;;;;18.40;13.82;;;;;;;21.54;17.68;97590.47;5847402;24;20158;-82
2023/02/21 09:39:31;;;;;;;20.33;16.02;;;;;;;20.58;17.32;97553.84;5898261;23;20032;-84
2023/02/21 09:46:43;;;;;;;;;;;;;;;;;;;;;
2023/02/21 09:49:57;;;;;;;19.45;14.07;;;;;;;21.27;16.28;97628.97;6105335;23;20068;-85
2023/02/21 09:52:43;;;;;;;18.17;13.35;;;;;;;21.42;16.50;97625.94;6001714;23;20023;-82
2023/02/21 09:55:43;;;;;;;18.25;13.38;;;;;;;20.94;16.64;97591.28;6127137;23;20032;-85
2023/02/21 09:58:29;;;;;;;18.30;13.25;;;;;;;21.33;15.91;97617.03;6174234;23;20081;-82
2023/02/21 10:01:46;;;;;;;17.23;12.85;;;;;;;20.50;15.81;97614.41;6150281;23;20013;-83
2023/02/21 10:04:45;;;;;;;15.02;12.18;;;;;;;20.50;15.86;97609.13;6167948;23;20013;-81
2023/02/21 10:07:40;;;;;;;17.90;13.13;;;;;;;20.42;15.42;97623.78;6084249;23;20040;-84
2023/02/21 10:10:32;;;;;;;;;;;;;;;;;;;;;
2023/02/21 10:13:29;;;;;;;16.05;12.75;;;;;;;19.85;15.59;97631.97;6188208;23;20493;-81
2023/02/21 10:16:46;;;;;;;16.90;12.73;;;;;;;19.05;15.69;97586.47;6119801;23;20396;-85
2023/02/21 10:20:08;;;;;;;16.83;12.05;;;;;;;19.51;15.83;97610.97;6022420;23;20055;-83
2023/02/21 10:23:01;;;;;;;16.45;11.68;;;;;;;19.96;15.27;97596.81;5866974;23;20679;-83
2023/02/21 10:25:31;;;;;;;14.43;10.52;;;;;;;18.51;15.34;97638.00;6043133;23;20719;-84
2023/02/21 10:28:13;;;;;;;14.18;10.70;;;;;;;14.38;15.54;97558.03;6166135;23;20019;-83
2023/02/21 10:30:48;;;;;;;16.00;11.23;;;;;;;11.53;16.68;97555.84;6175356;23;20013;-82
2023/02/21 10:33:20;;;;;;;17.92;12.00;;;;;;;9.72;17.83;97590.66;6146440;23;20017;-83
2023/02/21 10:35:49;;;;;;;;;;;;;;;9.05;18.10;97667.63;6148603;23;20063;-82
2023/02/21 10:41:10;;;;;;;22.33;13.35;;;;;;;6.62;19.76;97625.25;6181529;23;20001;-81
2023/02/21 10:44:42;;;;;;;;;;;;;;;;;;;;;
2023/02/21 10:47:23;;;;;;;20.05;12.38;;;;;;;5.05;21.14;97591.22;6193141;23;20339;-81
2023/02/21 10:50:08;;;;;;;22.25;12.38;;;;;;;5.36;20.90;97681.66;6194549;23;20065;-84
2023/02/21 10:52:37;;;;;;;23.33;12.32;;;;;;;4.47;21.47;97641.34;6145020;23;20013;-84
2023/02/21 10:55:14;;;;;;;19.77;11.82;;;;;;;3.71;21.84;97627.19;6146981;23;20094;-82
2023/02/21 10:58:05;;;;;;;23.27;12.95;;;;;;;3.34;22.30;97635.44;6145228;23;20021;-84
2023/02/21 11:00:56;;;;;;;21.20;12.38;;;;;;;2.58;22.11;97569.66;6164427;23;20088;-84
2023/02/21 11:03:55;;;;;;;;;;;;;;;;;;;;;
2023/02/21 11:06:55;;;;;;;23.25;12.32;;;;;;;1.73;23.64;97621.84;6170770;23;20076;-84
2023/02/21 11:09:46;;;;;;;24.30;12.18;;;;;;;1.76;23.72;97709.03;6171622;23;20013;-84
2023/02/21 11:12:16;;;;;;;24.17;11.52;;;;;;;1.31;24.27;97710.13;6167679;23;20024;-82
2023/02/21 11:15:09;;;;;;;20.83;10.93;;;;;;;1.04;24.92;97714.53;6139110;23;20485;-84
2023/02/21 11:18:03;;;;;;;19.15;11.07;;;;;;;0.82;24.67;97721.41;6139500;23;20028;-86
2023/02/21 11:20:32;;;;;;;20.90;10.85;;;;;;;0.23;25.56;97678.03;6157958;23;20023;-85
2023/02/21 11:23:01;;;;;;;20.95;11.05;;;;;;;0.28;25.78;97694.25;6185450;23;20017;-83
2023/02/21 11:25:59;;;;;;;;;;;;;;;;;;;;;
2023/02/21 11:28:28;;;;;;;20.00;10.95;;;;;;;-0.06;25.83;97668.69;6186893;23;20068;-85
2023/02/21 11:32:00;;;;;;;;;;;;;;;;;;;;;
2023/02/21 11:35:11;;;;;;;23.85;10.40;;;;;;;-0.10;26.29;97736.00;6142116;23;20455;-82
2023/02/21 11:38:08;;;;;;;22.55;10.48;;;;;;;-0.63;27.10;97686.50;6115187;23;20045;-82
2023/02/21 11:41:00;;;;;;;20.73;10.30;;;;;;;-1.06;27.28;97593.63;6162443;23;20045;-86
2023/02/21 11:43:42;;;;;;;23.35;10.32;;;;;;;-0.49;27.21;97707.84;6126400;23;20041;-82
2023/02/21 11:50:26;;;;;;;20.23;10.15;;;;;;;-0.88;27.60;97747.72;6170863;23;20024;-81
2023/02/21 11:53:19;;;;;;;23.20;10.20;;;;;;;-2.13;27.70;97630.53;6172842;23;20007;-81
2023/02/21 11:56:31;;;;;;;18.23;9.50;;;;;;;-1.56;28.19;97748.22;6152845;23;20067;-82
2023/02/21 11:59:21;;;;;;;18.30;9.80;;;;;;;-1.68;28.71;97758.34;6145422;23;20041;-83
2023/02/21 12:02:47;;;;;;;;;;;;;;;;;;;;;
2023/02/21 12:10:16;;;;;;;23.02;9.98;;;;;;;-2.98;29.36;97731.63;6110097;23;20017;-82
2023/02/21 12:17:39;;;;;;;;;;;;;;;;;;;;;
2023/02/21 12:20:17;;;;;;;20.98;9.40;;;;;;;-2.78;29.95;97765.81;6043892;23;20075;-83
2023/02/21 12:22:55;;;;;;;21.38;9.60;;;;;;;-3.12;30.52;97724.66;6043934;23;20583;-85
2023/02/21 12:29:51;;;;;;;24.20;9.98;;;;;;;-2.88;30.49;97799.63;6108965;23;20073;-83
2023/02/21 12:33:28;;;;;;;21.35;9.82;;;;;;;-2.93;30.52;97811.41;6095293;23;20105;-85
2023/02/21 12:36:56;;;;;;;19.75;9.63;;;;;;;-3.13;31.01;97806.91;6132026;23;20009;-85
2023/02/21 12:40:12;;;;;;;20.15;8.68;;;;;;;-3.24;31.22;97814.41;6165727;23;20225;-84
2023/02/21 12:43:41;;;;;;;17.60;9.23;;;;;;;-3.29;31.32;97826.19;6145280;23;20012;-83
2023/02/21 12:46:26;;;;;;;19.40;9.40;;;;;;;-3.71;31.35;97796.72;6149479;23;20013;-82
2023/02/21 12:49:39;;;;;;;18.10;8.93;;;;;;;-3.69;31.57;97836.63;6142680;23;20024;-84
2023/02/21 12:53:06;;;;;;;19.45;8.93;;;;;;;-4.65;32.21;97705.38;6144593;23;20021;-86
2023/02/21 12:56:23;;;;;;;;;;;;;;;;;;;;;
2023/02/21 12:59:29;;;;;;;19.40;9.35;;;;;;;-4.68;31.82;97751.03;6144916;23;20510;-86
2023/02/21 13:03:34;;;;;;;21.50;10.35;;;;;;;-4.35;32.05;97843.91;6162385;23;20048;-86
2023/02/21 13:07:10;;;;;;;20.98;9.55;;;;;;;-4.65;32.75;97822.16;6023201;23;20025;-85
2023/02/21 13:10:23;;;;;;;20.10;8.98;;;;;;;-4.50;32.85;97848.66;5916499;24;20150;-85
2023/02/21 13:13:31;;;;;;;19.25;8.73;;;;;;;-5.17;33.16;97774.56;5955194;23;20076;-83
2023/02/21 13:28:46;;;;;;;20.95;9.63;;;;;;;-5.37;34.14;97806.25;5899400;24;20600;-85
2023/02/21 13:32:19;;;;;;;25.40;9.95;;;;;;;-5.61;34.20;97809.94;5945026;24;20080;-84
2023/02/21 13:35:05;;;;;;;21.92;9.68;;;;;;;-5.15;34.37;97883.69;5988865;23;20053;-85
2023/02/21 13:38:45;;;;;;;19.27;7.93;;;;;;;-5.76;34.68;97801.16;5992526;23;20019;-86
2023/02/21 13:42:40;;;;;;;19.58;8.25;;;;;;;-5.98;34.67;97821.72;6127986;23;20021;-83
2023/02/21 13:45:32;;;;;;;19.05;8.23;;;;;;;-6.27;34.41;97824.38;6074803;23;20022;-83
2023/02/21 13:47:59;;;;;;;21.15;8.65;;;;;;;-5.80;34.76;97904.94;6151966;23;20456;-84
2023/02/21 13:50:48;;;;;;;17.95;8.75;;;;;;;-6.23;35.38;97841.38;6131368;23;20044;-81
2023/02/21 13:53:23;;;;;;;21.15;8.57;;;;;;;-5.87;35.09;97918.25;6104839;23;20021;-87
2023/02/21 13:55:58;;;;;;;20.50;8.60;;;;;;;-5.93;35.39;97921.50;6129766;23;20017;-84
2023/02/21 13:58:43;;;;;;;23.33;8.90;;;;;;;-6.31;35.37;97891.81;6128695;23;20344;-85
2023/02/21 14:01:29;;;;;;;19.63;8.10;;;;;;;-6.06;35.87;97933.84;6156896;23;20013;-84
2023/02/21 14:03:58;;;;;;;24.70;9.30;;;;;;;-6.24;35.74;97919.03;6128700;23;20028;-83
2023/02/21 14:06:36;;;;;;;21.30;9.48;;;;;;;-6.05;35.87;97947.38;6152377;23;20017;-85
2023/02/21 14:09:12;;;;;;;18.42;8.27;;;;;;;-6.67;36.01;97839.34;6153541;23;20014;-83
2023/02/21 14:11:52;;;;;;;24.92;9.32;;;;;;;-6.45;36.12;97876.22;6158698;23;20486;-85
2023/02/21 14:14:33;;;;;;;18.17;9.05;;;;;;;-6.33;35.92;97912.84;6134911;23;20040;-86
2023/02/21 14:17:13;;;;;;;18.23;7.53;;;;;;;-6.72;36.51;97874.63;6135751;23;20021;-86
2023/02/21 14:20:14;;;;;;;17.08;7.43;;;;;;;-6.96;36.52;97844.44;6132251;23;20032;-83
2023/02/21 14:22:52;;;;;;;17.58;8.25;;;;;;;-6.93;36.59;97859.69;6160094;23;20025;-84
2023/02/21 14:25:25;;;;;;;17.90;7.68;;;;;;;-6.47;36.81;97979.09;6168980;23;20017;-84
2023/02/21 14:28:00;;;;;;;24.55;7.68;;;;;;;-7.06;36.72;97910.72;6130449;23;20021;-84
2023/02/21 14:30:46;;;;;;;18.92;7.03;;;;;;;-6.96;37.46;97955.72;6107437;23;20052;-84
2023/02/21 14:33:24;;;;;;;24.13;7.65;;;;;;;-7.33;37.35;97907.38;6153941;23;20467;-86
2023/02/21 14:36:01;;;;;;;24.25;8.13;;;;;;;-7.04;37.68;97978.25;6134644;23;20029;-82
2023/02/21 14:38:43;;;;;;;20.38;8.00;;;;;;;-7.58;37.88;97910.78;6154328;23;20017;-86
2023/02/21 14:41:15;;;;;;;22.48;7.50;;;;;;;-7.16;38.31;97982.88;6125331;23;20044;-83
2023/02/21 14:44:29;;;;;;;19.45;8.38;;;;;;;-6.91;38.53;98021.63;6128645;23;20028;-84
2023/02/21 14:47:45;;;;;;;;;;;;;;;;;;;;;
2023/02/21 14:52:00;;;;;;;17.45;7.15;;;;;;;-8.03;38.32;97910.16;6091653;23;20018;-84
2023/02/21 14:55:42;;;;;;;24.30;8.27;;;;;;;-7.38;38.47;98040.31;6096551;23;20037;-80
2023/02/21 14:58:58;;;;;;;19.05;8.05;;;;;;;-7.69;37.85;98044.31;6091053;23;20021;-82
2023/02/21 15:01:47;;;;;;;20.55;8.02;;;;;;;-8.56;38.87;97947.84;6139494;23;20013;-82
2023/02/21 15:04:27;;;;;;;23.13;7.90;;;;;;;-7.92;38.80;98066.22;6161822;23;20049;-80
2023/02/21 15:11:14;;;;;;;26.00;9.23;;;;;;;-8.44;38.82;97990.28;6163552;23;20017;-80
2023/02/21 15:14:40;;;;;;;31.60;11.30;;;;;;;-7.91;39.28;98083.97;6140426;23;20024;-81
2023/02/21 15:17:34;;;;;;;30.40;10.03;;;;;;;-8.75;39.38;97968.97;6136905;23;20100;-80
2023/02/21 15:20:41;;;;;;;35.03;9.57;;;;;;;-8.28;39.66;98037.16;6164100;23;20071;-80
2023/02/21 15:23:28;;;;;;;23.30;8.50;;;;;;;-8.24;39.32;98046.53;6112172;23;20040;-82
2023/02/21 15:26:30;;;;;;;22.20;7.83;;;;;;;-8.37;40.00;98014.94;6139132;23;20135;-83
2023/02/21 15:29:18;;;;;;;;;;;;;;;;;;;;;
2023/02/21 15:31:59;;;;;;;23.30;9.20;;;;;;;-8.28;39.90;98066.56;6163680;23;20021;-81
2023/02/21 15:34:52;;;;;;;19.27;8.53;;;;;;;-8.02;40.04;98126.50;6161553;23;20022;-82
2023/02/21 15:37:28;;;;;;;30.97;9.30;;;;;;;-8.66;40.26;98029.88;6161230;23;20829;-80
2023/02/21 15:40:10;;;;;;;21.50;8.80;;;;;;;-8.84;40.28;97987.13;6112514;23;20337;-81
2023/02/21 15:42:45;;;;;;;20.60;8.47;;;;;;;-8.14;40.10;98117.59;6167094;23;20013;-80
2023/02/21 15:45:46;;;;;;;20.43;8.90;;;;;;;-8.32;40.61;98118.59;6167359;23;20075;-81
2023/02/21 15:48:45;;;;;;;18.33;8.63;;;;;;;-9.05;40.36;97988.81;6052362;23;20022;-80
2023/02/21 15:51:58;;;;;;;20.73;8.30;;;;;;;-8.38;40.60;98111.63;6165095;23;20071;-80
2023/02/21 15:56:19;;;;;;;23.97;8.87;;;;;;;-8.98;40.58;98034.50;6129033;23;20467;-83
2023/02/21 15:59:27;;;;;;;20.90;8.47;;;;;;;-8.34;40.38;98166.47;6141107;23;20039;-80
2023/02/21 16:02:25;;;;;;;22.57;9.17;;;;;;;-9.28;40.70;98027.44;6145984;23;20016;-80
2023/02/21 16:04:54;;;;;;;23.43;8.67;;;;;;;-8.41;40.82;98181.31;6201032;23;20021;-81
2023/02/21 16:08:17;;;;;;;20.47;7.07;;;;;;;-8.70;41.04;98148.22;6176890;23;20048;-81
2023/02/21 16:11:06;;;;;;;18.10;8.23;;;;;;;-8.74;41.17;98146.41;6142955;23;20016;-81
2023/02/21 16:14:04;;;;;;;18.37;7.90;;;;;;;-8.51;41.49;98208.75;6166241;23;20647;-80
2023/02/21 16:16:36;;;;;;;20.50;8.17;;;;;;;-8.64;41.02;98197.28;6160315;23;20339;-80
2023/02/21 16:19:20;;;;;;;25.73;8.87;;;;;;;-8.64;41.46;98202.31;6121115;23;20044;-82
2023/02/21 16:22:49;;;;;;;;;;;;;;;;;;;;;
2023/02/21 16:26:15;;;;;;;21.50;8.47;;;;;;;-8.74;41.45;98207.78;6020074;23;20098;-82
2023/02/21 16:29:30;;;;;;;19.73;7.77;;;;;;;-8.79;41.77;98216.78;6065395;23;20013;-81
2023/02/21 16:32:31;;;;;;;19.10;8.33;;;;;;;-9.29;41.70;98160.91;6193338;23;20025;-81
2023/02/21 16:35:01;;;;;;;22.27;8.63;;;;;;;-9.72;41.54;98094.41;6142521;23;20017;-81
2023/02/21 16:37:31;;;;;;;21.83;8.27;;;;;;;-9.11;41.99;98204.53;6142846;23;20016;-82
2023/02/21 16:40:00;;;;;;;22.97;8.37;;;;;;;-9.64;42.17;98122.44;6164477;23;20473;-82
2023/02/21 16:42:33;;;;;;;21.20;8.80;;;;;;;-9.11;42.21;98239.81;6194351;23;20035;-81
2023/02/21 16:45:11;;;;;;;20.13;8.30;;;;;;;-9.01;42.30;98232.69;6198958;23;20021;-79
2023/02/21 16:48:35;;;;;;;;;;;;;;;;;;;;;
2023/02/21 16:51:19;;;;;;;21.57;8.87;;;;;;;-9.17;42.50;98204.28;6105790;23;20098;-81
2023/02/21 16:53:57;;;;;;;19.00;7.70;;;;;;;-9.77;42.81;98110.97;6044711;23;20026;-81
2023/02/21 16:56:26;;;;;;;26.63;8.47;;;;;;;-9.05;43.07;98235.84;6109799;23;20017;-82
2023/02/21 16:59:25;;;;;;;19.67;8.70;;;;;;;-9.08;42.62;98245.00;6139616;23;20049;-82
2023/02/21 17:01:58;;;;;;;25.90;9.10;;;;;;;-9.64;42.57;98172.81;6086284;23;20026;-81
2023/02/21 17:04:25;;;;;;;20.67;8.77;;;;;;;-9.09;43.10;98253.34;6132539;23;20049;-81
2023/02/21 17:07:13;;;;;;;26.00;8.53;;;;;;;-9.66;43.16;98167.69;6133243;23;20463;-83
2023/02/21 17:09:49;;;;;;;29.97;9.23;;;;;;;-9.41;43.18;98222.56;6111008;23;20022;-80
2023/02/21 17:12:51;;;;;;;21.13;8.73;;;;;;;-9.76;42.85;98168.94;6111928;23;20018;-81
2023/02/21 17:15:30;;;;;;;18.13;7.30;;;;;;;-9.66;42.91;98192.03;6109386;23;20018;-82
2023/02/21 17:18:23;;;;;;;23.20;8.60;;;;;;;-9.82;43.56;98178.75;6108671;23;20018;-81
2023/02/21 17:21:03;;;;;;;33.10;10.70;;;;;;;-10.25;43.24;98121.34;6141695;23;20411;-81
2023/02/21 17:23:43;;;;;;;39.20;11.03;;;;;;;-9.89;43.27;98207.78;6170767;23;20021;-81
2023/02/21 17:26:28;;;;;;;;;;;;;;;;;;;;;
2023/02/21 17:29:02;;;;;;;30.17;11.17;;;;;;;-9.45;43.89;98291.25;6167599;23;20107;-82
2023/02/21 17:31:55;;;;;;;29.13;9.83;;;;;;;-9.42;43.68;98296.41;6150898;23;20017;-82
2023/02/21 17:34:54;;;;;;;25.77;9.87;;;;;;;-10.18;43.75;98156.97;6154673;23;20017;-80
2023/02/21 17:37:34;;;;;;;25.47;10.33;;;;;;;-10.16;44.16;98180.56;6149284;23;20426;-81
2023/02/21 17:40:27;;;;;;;26.00;9.30;;;;;;;-9.61;44.68;98266.13;6194319;23;20040;-84
2023/02/21 17:43:11;;;;;;;18.30;7.77;;;;;;;-9.85;44.03;98241.53;6118383;23;20025;-81
2023/02/21 17:45:47;;;;;;;21.47;9.13;;;;;;;-9.49;44.58;98303.63;6116261;23;20041;-82
2023/02/21 17:48:54;;;;;;;21.87;8.47;;;;;;;-9.49;44.55;98309.53;6088312;23;20035;-81
2023/02/21 17:51:45;;;;;;;22.00;8.43;;;;;;;-10.40;44.81;98162.66;6123099;23;20021;-81
2023/02/21 17:57:36;;;;;;;;;;;;;;;;;;;;;
2023/02/21 18:00:37;;;;;;;24.60;8.90;;;;;;;-10.16;44.80;98248.50;6148823;23;20001;-81
2023/02/21 18:03:16;;;;;;;22.63;8.67;;;;;;;-10.23;45.23;98241.44;6125020;23;20461;-80